Time;durP1;ratioP1;P1;durP2;ratioP2;P2;SDS_P1;SDS_P2;PMS_P1;PMS_P2;Temp;Humidity;BMP_temperature;BMP_pressure;BME280_temperature;BME280_humidity;BME280_pressure;Samples;Min_cycle;Max_cycle;Signal;HPM_P1;HPM_P2
2023/09/08 00:02:27;;;;;;;4.72;3.40;;;;;;;25.28;43.85;100113.50;4974880;28;20086;-83
2023/09/08 00:04:55;;;;;;;4.38;3.40;;;;;;;25.30;43.53;100116.84;4973872;28;20057;-83
2023/09/08 00:07:22;;;;;;;6.72;3.38;;;;;;;25.29;43.72;100117.84;4974653;28;20078;-84
2023/09/08 00:09:48;;;;;;;4.60;3.40;;;;;;;25.27;43.76;100114.50;4974819;28;20447;-83
2023/09/08 00:12:15;;;;;;;5.78;3.10;;;;;;;25.26;43.82;100107.41;4974322;28;20063;-84
2023/09/08 00:14:42;;;;;;;4.53;3.30;;;;;;;25.25;43.87;100105.75;4974724;28;20042;-83
2023/09/08 00:17:09;;;;;;;3.88;3.22;;;;;;;25.23;43.34;100099.72;4974790;28;20102;-83
2023/09/08 00:19:36;;;;;;;8.05;3.70;;;;;;;25.21;43.82;100104.41;4974656;28;20055;-83
2023/09/08 00:22:05;;;;;;;8.73;3.72;;;;;;;25.20;43.80;100103.56;4974208;28;20046;-83
2023/09/08 00:24:32;;;;;;;4.38;3.10;;;;;;;25.17;43.70;100106.63;4974570;28;20043;-84
2023/09/08 00:26:59;;;;;;;5.45;3.30;;;;;;;25.15;43.84;100105.97;4973264;28;20055;-83
2023/09/08 00:29:25;;;;;;;5.97;3.40;;;;;;;25.13;44.21;100104.44;4974308;28;20086;-84
2023/09/08 00:31:52;;;;;;;7.70;3.67;;;;;;;25.10;44.05;100103.81;4973827;28;20479;-83
2023/09/08 00:34:19;;;;;;;6.43;3.60;;;;;;;25.08;44.00;100096.91;4974458;28;20051;-83
2023/09/08 00:36:45;;;;;;;4.03;3.33;;;;;;;25.06;44.23;100097.09;4974502;28;20055;-84
2023/09/08 00:39:12;;;;;;;3.78;3.15;;;;;;;25.04;44.12;100093.72;4974386;28;20050;-83
2023/09/08 00:41:38;;;;;;;5.03;3.28;;;;;;;25.04;44.34;100090.19;4973998;28;20124;-82
2023/09/08 00:44:05;;;;;;;4.13;3.28;;;;;;;25.02;43.89;100090.38;4974451;28;20055;-84
2023/09/08 00:46:32;;;;;;;4.20;3.00;;;;;;;24.98;44.30;100089.84;4974456;28;20090;-83
2023/09/08 00:49:00;;;;;;;3.42;3.13;;;;;;;24.98;43.98;100091.72;4974325;28;20480;-82
2023/09/08 00:51:27;;;;;;;5.03;3.00;;;;;;;24.95;44.12;100094.75;4973962;28;20090;-82
2023/09/08 00:53:53;;;;;;;5.22;3.83;;;;;;;24.93;44.04;100099.50;4974290;28;20114;-83
2023/09/08 00:56:20;;;;;;;6.35;3.35;;;;;;;24.90;44.41;100094.44;4972920;28;20213;-83
2023/09/08 00:58:47;;;;;;;5.30;3.67;;;;;;;24.88;44.07;100091.94;4974024;28;20149;-84
2023/09/08 01:01:14;;;;;;;4.85;3.45;;;;;;;24.84;44.15;100086.06;4973795;28;20138;-83
2023/09/08 01:03:40;;;;;;;4.45;3.35;;;;;;;24.83;44.06;100087.03;4974114;28;20055;-83
2023/09/08 01:06:07;;;;;;;5.07;3.30;;;;;;;24.82;44.44;100084.53;4973920;28;20239;-84
2023/09/08 01:08:35;;;;;;;4.85;3.15;;;;;;;24.80;44.27;100086.53;4973847;28;20110;-82
2023/09/08 01:11:03;;;;;;;4.55;3.53;;;;;;;24.79;44.05;100084.88;4973373;28;20484;-83
2023/09/08 01:13:29;;;;;;;4.38;3.47;;;;;;;24.77;44.18;100086.88;4973710;28;20054;-83
2023/09/08 01:15:56;;;;;;;6.10;3.72;;;;;;;24.75;44.40;100089.75;4973664;28;20053;-83
2023/09/08 01:18:22;;;;;;;6.13;3.30;;;;;;;24.72;44.58;100085.56;4973712;28;20066;-83
2023/09/08 01:21:07;;;;;;;3.58;3.15;;;;;;;24.69;44.95;100082.34;4973473;28;20134;-84
2023/09/08 01:24:14;;;;;;;4.75;3.60;;;;;;;24.64;44.73;100087.44;4973873;28;20149;-83
2023/09/08 01:26:41;;;;;;;6.03;3.33;;;;;;;24.67;44.24;100084.41;4972390;28;20090;-84
2023/09/08 01:29:10;;;;;;;6.20;3.40;;;;;;;24.65;44.48;100083.72;4973702;28;20061;-83
2023/09/08 01:31:38;;;;;;;5.78;3.40;;;;;;;24.62;44.71;100087.59;4972393;28;20089;-84
2023/09/08 01:34:06;;;;;;;5.60;3.17;;;;;;;24.59;45.09;100086.09;4973598;28;20054;-83
2023/09/08 01:36:34;;;;;;;4.70;3.67;;;;;;;24.56;44.99;100083.72;4972218;28;20089;-84
2023/09/08 01:39:02;;;;;;;8.98;3.33;;;;;;;24.55;44.80;100090.13;4973721;28;20058;-83
2023/09/08 01:41:31;;;;;;;4.55;3.60;;;;;;;24.52;44.58;100085.09;4972947;28;20066;-84
2023/09/08 01:43:59;;;;;;;6.50;3.28;;;;;;;24.50;45.07;100084.44;4973085;28;20488;-84
2023/09/08 01:46:25;;;;;;;6.70;3.35;;;;;;;24.48;45.12;100083.75;4973420;28;20046;-84
2023/09/08 01:48:52;;;;;;;6.43;3.40;;;;;;;24.46;44.84;100085.78;4973107;28;20047;-83
2023/09/08 01:51:18;;;;;;;11.80;3.65;;;;;;;24.44;45.32;100085.94;4972713;28;20043;-84
2023/09/08 01:53:45;;;;;;;4.50;3.22;;;;;;;24.43;45.21;100083.44;4972935;28;20054;-84
2023/09/08 01:56:11;;;;;;;3.90;3.47;;;;;;;24.40;45.17;100081.09;4971974;28;20433;-84
2023/09/08 01:58:38;;;;;;;4.60;3.47;;;;;;;24.37;44.85;100071.50;4972970;28;20141;-84
2023/09/08 02:01:05;;;;;;;4.28;3.10;;;;;;;24.34;45.03;100074.53;4972887;28;20061;-84
2023/09/08 02:03:32;;;;;;;7.30;3.92;;;;;;;24.32;45.13;100077.41;4971817;28;20090;-82
2023/09/08 02:05:59;;;;;;;4.50;3.53;;;;;;;24.30;45.19;100067.81;4972823;28;20133;-83
2023/09/08 02:08:26;;;;;;;5.85;3.30;;;;;;;24.26;45.46;100064.59;4972673;28;20160;-84
2023/09/08 02:10:52;;;;;;;5.60;3.65;;;;;;;24.24;45.56;100069.34;4972382;28;20126;-83
2023/09/08 02:13:19;;;;;;;5.15;3.63;;;;;;;24.20;45.60;100058.09;4972542;28;20055;-83
2023/09/08 02:15:46;;;;;;;5.70;3.25;;;;;;;24.18;45.66;100060.09;4972858;28;20047;-84
2023/09/08 02:18:14;;;;;;;4.20;3.40;;;;;;;24.15;45.52;100060.41;4971512;28;20050;-83
2023/09/08 02:20:40;;;;;;;7.05;3.25;;;;;;;24.13;45.63;100062.44;4972564;28;20526;-84
2023/09/08 02:23:07;;;;;;;4.60;3.25;;;;;;;24.10;45.59;100061.94;4970999;28;20043;-84
2023/09/08 02:25:34;;;;;;;3.45;3.13;;;;;;;24.07;45.26;100063.94;4972405;28;20266;-83
2023/09/08 02:28:01;;;;;;;4.90;3.55;;;;;;;24.05;45.79;100057.91;4972751;28;20055;-83
2023/09/08 02:30:27;;;;;;;3.92;3.42;;;;;;;24.03;45.73;100059.06;4972550;28;20522;-84
2023/09/08 02:32:55;;;;;;;6.68;3.20;;;;;;;24.01;45.67;100067.31;4972237;28;20133;-84
2023/09/08 02:35:24;;;;;;;4.38;3.10;;;;;;;23.98;46.02;100059.56;4972591;28;20415;-84
2023/09/08 02:37:50;;;;;;;5.72;3.33;;;;;;;23.96;45.76;100064.28;4972217;28;20754;-84
2023/09/08 02:40:18;;;;;;;7.93;3.80;;;;;;;23.94;45.92;100055.53;4972175;28;20054;-84
2023/09/08 02:42:45;;;;;;;3.80;3.10;;;;;;;23.92;45.47;100062.94;4970004;28;20143;-83
2023/09/08 02:45:12;;;;;;;4.32;3.38;;;;;;;23.90;45.89;100060.41;4972580;28;20104;-84
2023/09/08 02:47:38;;;;;;;3.90;3.50;;;;;;;23.87;45.83;100062.59;4972356;28;20534;-83
2023/09/08 02:50:06;;;;;;;5.63;3.47;;;;;;;23.85;46.19;100068.13;4972174;28;20089;-82
2023/09/08 02:52:33;;;;;;;3.55;3.05;;;;;;;23.82;46.15;100061.22;4971727;28;20065;-80
2023/09/08 02:55:01;;;;;;;6.07;3.60;;;;;;;23.81;46.01;100062.25;4972112;28;20483;-84
2023/09/08 02:57:28;;;;;;;4.82;3.75;;;;;;;23.79;46.38;100071.50;4972022;28;20055;-84
2023/09/08 02:59:56;;;;;;;4.63;3.28;;;;;;;23.77;46.19;100070.81;4972018;28;20057;-82
2023/09/08 03:02:25;;;;;;;5.35;3.60;;;;;;;23.74;46.31;100071.16;4986577;28;20058;-84
2023/09/08 03:04:52;;;;;;;4.90;3.60;;;;;;;23.73;46.13;100061.41;4972056;28;20448;-84
2023/09/08 03:07:18;;;;;;;4.25;3.35;;;;;;;23.69;46.32;100068.94;4971951;28;20050;-85
2023/09/08 03:09:45;;;;;;;4.93;3.80;;;;;;;23.68;46.55;100069.97;4972082;28;20101;-84
2023/09/08 03:12:11;;;;;;;6.80;3.78;;;;;;;23.64;46.40;100069.47;4971793;28;20095;-82
2023/09/08 03:14:38;;;;;;;4.70;3.90;;;;;;;23.63;46.84;100066.94;4971934;28;20110;-84
2023/09/08 03:17:04;;;;;;;5.40;3.47;;;;;;;23.60;46.36;100062.75;4971957;28;20061;-84
2023/09/08 03:19:31;;;;;;;8.05;3.50;;;;;;;23.56;46.50;100067.59;4971807;28;20516;-84
2023/09/08 03:21:58;;;;;;;4.35;3.90;;;;;;;23.54;46.70;100061.56;4971629;28;20491;-84
2023/09/08 03:24:24;;;;;;;4.75;3.67;;;;;;;23.51;46.96;100058.38;4971989;28;20054;-84
2023/09/08 03:26:51;;;;;;;6.97;3.50;;;;;;;23.48;46.69;100054.16;4970723;28;20047;-84
2023/09/08 03:29:17;;;;;;;6.28;3.60;;;;;;;23.46;47.06;100058.00;4970709;28;20050;-84
2023/09/08 03:31:44;;;;;;;3.85;3.33;;;;;;;23.42;46.73;100054.81;4971649;28;20082;-86
2023/09/08 03:34:11;;;;;;;5.78;3.30;;;;;;;23.39;47.12;100052.44;4971801;28;20050;-84
2023/09/08 03:36:37;;;;;;;5.72;4.15;;;;;;;23.36;47.29;100047.41;4971641;28;20054;-85
2023/09/08 03:39:04;;;;;;;4.65;3.67;;;;;;;23.34;47.10;100061.00;4971724;28;20053;-83
2023/09/08 03:41:30;;;;;;;4.93;3.88;;;;;;;23.30;47.22;100057.75;4971417;28;20090;-82
2023/09/08 03:43:57;;;;;;;4.45;3.47;;;;;;;23.29;47.63;100056.09;4971578;28;20509;-84
2023/09/08 03:46:25;;;;;;;5.30;3.75;;;;;;;23.26;47.35;100059.13;4971766;28;20419;-84
2023/09/08 03:48:54;;;;;;;5.07;3.45;;;;;;;23.24;47.68;100053.06;4971754;28;20047;-83
2023/09/08 03:51:20;;;;;;;5.40;3.53;;;;;;;23.23;47.42;100062.13;4970128;28;20046;-85
2023/09/08 03:53:47;;;;;;;6.25;3.63;;;;;;;23.22;47.69;100067.66;4972272;28;20158;-84
2023/09/08 03:56:13;;;;;;;5.63;3.65;;;;;;;23.19;47.83;100060.75;4975180;28;20054;-82
2023/09/08 03:58:40;;;;;;;7.60;3.97;;;;;;;23.18;47.59;100056.41;4975100;28;20054;-84
2023/09/08 04:01:06;;;;;;;4.75;3.75;;;;;;;23.17;47.52;100058.25;4974860;28;20050;-83
2023/09/08 04:03:33;;;;;;;6.38;3.92;;;;;;;23.17;47.61;100052.88;4973683;28;20051;-84
2023/09/08 04:06:00;;;;;;;7.85;3.92;;;;;;;23.17;47.73;100054.69;4975099;28;20524;-85
2023/09/08 04:08:27;;;;;;;7.72;3.80;;;;;;;23.16;47.85;100058.41;4974940;28;20078;-84
2023/09/08 04:10:53;;;;;;;6.00;3.65;;;;;;;23.17;48.08;100058.25;4974387;28;20058;-84
2023/09/08 04:13:20;;;;;;;4.32;3.60;;;;;;;23.14;47.86;100050.50;4975017;28;20415;-85
2023/09/08 04:15:46;;;;;;;5.10;4.00;;;;;;;23.14;47.50;100055.88;4974913;28;20510;-83
2023/09/08 04:18:13;;;;;;;4.35;3.47;;;;;;;23.12;47.95;100052.53;4973640;28;20062;-85
2023/09/08 04:20:39;;;;;;;5.82;4.22;;;;;;;23.11;48.18;100052.69;4974627;28;20058;-84
2023/09/08 04:23:06;;;;;;;4.10;3.70;;;;;;;23.08;48.01;100044.94;4973064;28;20061;-84
2023/09/08 04:25:32;;;;;;;5.30;3.80;;;;;;;23.08;48.16;100048.47;4974818;28;20055;-84
2023/09/08 04:27:59;;;;;;;5.88;3.40;;;;;;;23.06;47.97;100041.59;4974859;28;20134;-84
2023/09/08 04:30:25;;;;;;;5.07;3.78;;;;;;;23.02;48.08;100041.91;4974660;28;20055;-84
2023/09/08 04:32:52;;;;;;;7.72;3.72;;;;;;;23.02;48.18;100041.06;4973789;28;20059;-83
2023/09/08 04:35:18;;;;;;;5.88;3.88;;;;;;;23.00;48.13;100043.94;4973474;28;20476;-84
2023/09/08 04:37:45;;;;;;;4.28;3.70;;;;;;;22.99;48.06;100039.53;4974082;28;20491;-84
2023/09/08 04:40:11;;;;;;;8.02;4.07;;;;;;;22.99;47.87;100041.41;4973299;28;20054;-83
2023/09/08 04:42:38;;;;;;;6.40;3.85;;;;;;;22.97;47.99;100036.19;4974056;28;20138;-84
2023/09/08 04:45:05;;;;;;;15.07;4.38;;;;;;;22.96;48.13;100041.72;4974226;28;20419;-84
2023/09/08 04:47:32;;;;;;;6.75;3.70;;;;;;;22.95;48.23;100035.50;4972866;28;20058;-83
2023/09/08 04:49:58;;;;;;;5.22;3.17;;;;;;;22.94;48.06;100043.75;4974380;28;20138;-84
2023/09/08 04:52:25;;;;;;;4.72;3.67;;;;;;;22.93;48.22;100042.88;4973754;28;20117;-84
2023/09/08 04:54:51;;;;;;;4.15;3.53;;;;;;;22.91;48.32;100040.34;4974109;28;20055;-83
2023/09/08 04:57:18;;;;;;;3.65;3.25;;;;;;;22.90;48.20;100036.00;4973921;28;20047;-83
2023/09/08 04:59:49;;;;;;;6.68;3.63;;;;;;;22.89;48.38;100041.53;4974044;28;20630;-83
2023/09/08 05:02:18;;;;;;;6.80;4.00;;;;;;;22.87;48.49;100046.19;4973936;28;20400;-83
2023/09/08 05:04:45;;;;;;;6.40;3.95;;;;;;;22.87;48.49;100046.19;4973936;28;20483;-84
2023/09/08 05:07:13;;;;;;;5.20;3.75;;;;;;;22.86;48.67;100052.56;4972926;28;20794;-83
2023/09/08 05:09:39;;;;;;;4.20;3.80;;;;;;;22.84;48.47;100047.38;4974137;28;20054;-83
2023/09/08 05:12:06;;;;;;;4.65;3.60;;;;;;;22.84;49.01;100047.38;4973261;28;20058;-82
2023/09/08 05:14:33;;;;;;;5.07;3.88;;;;;;;22.83;48.94;100043.00;4973370;28;20046;-82
2023/09/08 05:16:59;;;;;;;4.95;4.10;;;;;;;22.82;48.96;100048.53;4973345;28;20097;-84
2023/09/08 05:19:26;;;;;;;5.75;3.75;;;;;;;22.81;48.99;100050.38;4973552;28;20267;-83
2023/09/08 05:21:54;;;;;;;5.72;4.00;;;;;;;22.82;48.50;100054.75;4972633;28;20610;-83
2023/09/08 05:24:21;;;;;;;5.20;3.97;;;;;;;22.82;49.17;100054.75;4972449;28;20077;-83
2023/09/08 05:26:48;;;;;;;7.80;4.00;;;;;;;22.82;49.00;100051.22;4972431;28;20117;-82
2023/09/08 05:29:14;;;;;;;4.35;3.85;;;;;;;22.82;48.88;100060.13;4972437;28;20054;-81
2023/09/08 05:31:41;;;;;;;7.75;3.33;;;;;;;22.82;49.20;100060.13;4972291;28;20384;-82
2023/09/08 05:34:08;;;;;;;5.63;3.47;;;;;;;22.84;49.03;100057.28;4972633;28;20550;-83
2023/09/08 05:36:38;;;;;;;7.13;3.70;;;;;;;22.85;48.99;100056.28;4971494;28;20047;-83
2023/09/08 05:39:05;;;;;;;5.65;3.50;;;;;;;22.85;48.90;100053.59;4973321;28;20047;-81
2023/09/08 05:41:33;;;;;;;4.22;3.55;;;;;;;22.86;49.13;100064.16;4972766;28;20553;-82
2023/09/08 05:44:01;;;;;;;8.30;4.20;;;;;;;22.87;49.39;100062.31;4972091;28;20047;-82
2023/09/08 05:46:27;;;;;;;6.97;3.92;;;;;;;22.87;49.37;100057.78;4971907;28;20105;-82
2023/09/08 05:48:54;;;;;;;4.43;3.70;;;;;;;22.87;49.03;100055.09;4973128;28;20058;-82
2023/09/08 05:51:22;;;;;;;6.13;4.20;;;;;;;22.89;49.38;100046.91;4972614;28;20105;-81
2023/09/08 05:53:49;;;;;;;4.65;4.05;;;;;;;22.89;49.45;100045.06;4972887;28;20140;-83
2023/09/08 05:56:15;;;;;;;4.40;3.78;;;;;;;22.92;49.36;100054.63;4970985;28;20053;-81
2023/09/08 05:58:42;;;;;;;5.90;3.80;;;;;;;22.93;49.50;100050.09;4972594;28;20051;-82
2023/09/08 06:01:08;;;;;;;4.03;3.67;;;;;;;22.95;49.61;100046.22;4971883;28;20479;-82
2023/09/08 06:03:35;;;;;;;4.65;3.97;;;;;;;22.97;49.56;100049.63;4971785;28;20471;-83
2023/09/08 06:06:02;;;;;;;6.00;3.45;;;;;;;22.98;49.50;100051.28;4972345;28;20051;-82
2023/09/08 06:08:28;;;;;;;3.72;3.33;;;;;;;23.01;49.39;100052.81;4971389;28;20452;-82
2023/09/08 06:10:55;;;;;;;5.65;3.45;;;;;;;23.03;49.57;100045.44;4971288;28;20502;-82
2023/09/08 06:13:21;;;;;;;6.18;3.88;;;;;;;23.06;49.52;100042.41;4971618;28;20141;-80
2023/09/08 06:15:48;;;;;;;4.80;3.70;;;;;;;23.08;49.22;100045.78;4972684;28;20140;-82
2023/09/08 06:18:14;;;;;;;4.82;4.00;;;;;;;23.10;49.80;100056.38;4972391;28;20047;-82
2023/09/08 06:20:48;;;;;;;8.10;4.10;;;;;;;23.08;49.71;100045.78;4972586;28;20050;-83
2023/09/08 06:23:14;;;;;;;3.90;3.50;;;;;;;23.13;49.55;100054.19;4972315;28;20097;-81
2023/09/08 06:25:41;;;;;;;4.10;3.60;;;;;;;23.16;49.56;100061.09;4972405;28;20540;-82
2023/09/08 06:28:08;;;;;;;4.93;3.65;;;;;;;23.20;49.87;100061.59;4972282;28;20105;-81
2023/09/08 06:30:34;;;;;;;5.38;3.38;;;;;;;23.21;49.97;100055.22;4971453;28;20082;-83
2023/09/08 06:33:01;;;;;;;4.05;3.60;;;;;;;23.26;50.01;100050.22;4971288;28;20093;-82
2023/09/08 06:35:28;;;;;;;4.88;3.78;;;;;;;23.28;49.90;100054.41;4971364;28;20134;-81
2023/09/08 06:37:54;;;;;;;7.72;3.60;;;;;;;23.32;49.83;100052.22;4971802;28;20101;-81
2023/09/08 06:40:21;;;;;;;4.82;3.65;;;;;;;23.35;49.88;100046.56;4970904;28;20105;-82
2023/09/08 06:42:47;;;;;;;4.40;3.50;;;;;;;23.40;50.49;100051.47;4971950;28;20058;-82
2023/09/08 06:45:14;;;;;;;6.45;3.90;;;;;;;23.42;49.95;100054.81;4972125;28;20059;-81
2023/09/08 06:47:41;;;;;;;4.78;3.50;;;;;;;23.46;49.75;100058.00;4972101;28;20066;-82
2023/09/08 06:50:10;;;;;;;9.85;4.20;;;;;;;23.50;49.73;100062.88;4972108;28;20055;-82
2023/09/08 06:52:36;;;;;;;4.03;3.45;;;;;;;23.54;49.81;100058.00;4970533;28;20062;-82
2023/09/08 06:55:03;;;;;;;5.05;3.42;;;;;;;23.59;50.11;100057.53;4971993;28;20050;-81
2023/09/08 06:57:31;;;;;;;5.63;3.65;;;;;;;23.64;49.71;100057.88;4971968;28;20508;-82
2023/09/08 06:59:57;;;;;;;5.18;3.80;;;;;;;23.68;49.37;100053.84;4971929;28;20051;-82
2023/09/08 07:02:24;;;;;;;5.18;3.78;;;;;;;23.73;49.31;100051.50;4971672;28;20860;-82
2023/09/08 07:04:51;;;;;;;8.07;3.72;;;;;;;23.80;49.09;100052.50;4971839;28;20047;-81
2023/09/08 07:07:20;;;;;;;4.50;3.63;;;;;;;23.86;49.56;100064.44;4972214;28;20050;-82
2023/09/08 07:09:46;;;;;;;4.22;3.60;;;;;;;23.92;49.29;100057.56;4972285;28;20059;-82
2023/09/08 07:12:13;;;;;;;6.80;4.13;;;;;;;23.99;48.96;100058.56;4971626;28;20090;-82
2023/09/08 07:14:40;;;;;;;8.45;4.07;;;;;;;24.04;48.78;100064.25;4971878;28;20505;-81
2023/09/08 07:17:06;;;;;;;5.88;4.03;;;;;;;24.11;48.89;100064.44;4971860;28;20047;-81
2023/09/08 07:19:33;;;;;;;5.60;4.00;;;;;;;24.18;49.11;100061.97;4971748;28;20114;-82
2023/09/08 07:21:59;;;;;;;7.45;3.80;;;;;;;24.24;48.72;100063.09;4971763;28;20798;-82
2023/09/08 07:24:26;;;;;;;5.50;3.97;;;;;;;24.28;48.90;100068.00;4971946;28;20051;-82
2023/09/08 07:26:52;;;;;;;7.78;4.05;;;;;;;24.34;48.64;100063.78;4970857;28;20491;-82
2023/09/08 07:29:18;;;;;;;5.28;3.53;;;;;;;24.40;48.48;100064.97;4973212;28;20061;-81
2023/09/08 07:31:45;;;;;;;5.10;3.38;;;;;;;24.46;48.88;100064.25;4975255;28;20055;-82
2023/09/08 07:34:11;;;;;;;6.93;3.67;;;;;;;24.52;49.17;100071.63;4975272;28;20054;-81
2023/09/08 07:36:38;;;;;;;6.80;3.13;;;;;;;24.58;48.57;100068.28;4975626;28;20050;-82
2023/09/08 07:39:05;;;;;;;4.90;3.70;;;;;;;24.64;48.19;100072.13;4975491;28;20521;-82
2023/09/08 07:41:31;;;;;;;7.28;3.75;;;;;;;24.69;48.09;100067.06;4975257;28;20059;-81
2023/09/08 07:43:58;;;;;;;7.15;3.90;;;;;;;24.75;48.09;100070.91;4975718;28;20496;-82
2023/09/08 07:46:24;;;;;;;6.15;3.92;;;;;;;24.80;48.38;100070.38;4974049;28;20078;-80
2023/09/08 07:48:51;;;;;;;5.43;3.63;;;;;;;24.84;48.20;100061.81;4975611;28;20090;-82
2023/09/08 07:51:18;;;;;;;7.13;3.35;;;;;;;24.90;48.03;100065.69;4975193;28;20105;-82
2023/09/08 07:53:44;;;;;;;4.55;3.78;;;;;;;24.95;47.78;100057.91;5028428;23;20056;-76
2023/09/08 07:56:11;;;;;;;5.00;3.75;;;;;;;25.01;47.79;100067.16;4995230;28;20054;-77
2023/09/08 07:58:39;;;;;;;5.25;3.65;;;;;;;25.06;48.57;100059.38;4995248;28;20049;-75
2023/09/08 08:01:06;;;;;;;6.13;3.67;;;;;;;25.11;48.25;100057.00;4994869;28;20085;-75
2023/09/08 08:03:34;;;;;;;5.40;3.50;;;;;;;25.18;48.31;100061.66;4995206;28;20055;-76
2023/09/08 08:06:01;;;;;;;5.03;3.70;;;;;;;25.23;48.23;100062.00;4995090;28;20596;-76
2023/09/08 08:08:28;;;;;;;4.80;3.60;;;;;;;25.28;47.96;100056.91;4995136;28;20054;-75
2023/09/08 08:10:55;;;;;;;10.15;3.88;;;;;;;25.34;47.80;100049.97;4994876;28;20075;-76
2023/09/08 08:13:22;;;;;;;4.18;3.33;;;;;;;25.39;48.08;100052.97;4994960;28;20487;-79
2023/09/08 08:15:49;;;;;;;7.45;4.07;;;;;;;25.44;47.85;100045.19;4994823;28;20049;-76
2023/09/08 08:18:16;;;;;;;4.55;2.85;;;;;;;25.51;47.90;100048.00;4995202;28;20050;-75
2023/09/08 08:20:43;;;;;;;4.57;3.60;;;;;;;25.56;47.80;100053.72;4994866;28;20046;-76
2023/09/08 08:23:10;;;;;;;6.18;3.63;;;;;;;25.62;47.99;100044.94;4994532;28;20061;-75
2023/09/08 08:25:36;;;;;;;4.22;3.63;;;;;;;25.68;47.78;100047.94;4994904;28;20050;-75
2023/09/08 08:28:03;;;;;;;4.70;3.58;;;;;;;25.73;47.87;100042.81;4994570;28;20113;-76
2023/09/08 08:30:30;;;;;;;5.38;3.95;;;;;;;25.81;48.00;100050.84;4994077;28;20053;-78
2023/09/08 08:32:56;;;;;;;4.72;3.35;;;;;;;25.87;48.02;100052.81;4993781;28;20050;-76
2023/09/08 08:35:23;;;;;;;6.78;4.00;;;;;;;25.95;48.53;100054.63;4993842;28;20043;-76
2023/09/08 08:37:50;;;;;;;4.28;3.53;;;;;;;26.02;48.10;100049.34;4994009;28;20054;-75
2023/09/08 08:40:16;;;;;;;4.30;3.90;;;;;;;26.10;48.26;100054.66;4992545;28;20081;-78
2023/09/08 08:42:44;;;;;;;9.70;3.65;;;;;;;26.20;48.37;100050.88;4993343;28;20054;-76
2023/09/08 08:45:11;;;;;;;4.18;3.40;;;;;;;26.29;48.00;100052.47;4993793;28;20130;-75
2023/09/08 08:47:39;;;;;;;9.55;3.53;;;;;;;26.36;47.82;100053.44;4993605;28;20054;-76
2023/09/08 08:50:10;;;;;;;3.80;3.40;;;;;;;26.44;47.88;100057.91;4993774;28;20129;-76
2023/09/08 08:52:38;;;;;;;4.38;3.55;;;;;;;26.54;48.20;100063.03;4993394;28;20053;-77
2023/09/08 08:55:05;;;;;;;3.83;3.20;;;;;;;26.63;47.97;100061.91;4976369;28;20097;-77
2023/09/08 08:57:32;;;;;;;10.15;3.67;;;;;;;26.70;48.05;100069.25;4993603;28;20110;-75
2023/09/08 09:00:00;;;;;;;5.32;3.38;;;;;;;26.78;47.88;100067.31;4993549;28;20133;-75
2023/09/08 09:02:28;;;;;;;7.30;3.42;;;;;;;26.86;47.58;100068.22;4993238;28;20077;-75
2023/09/08 09:04:55;;;;;;;7.75;3.33;;;;;;;26.94;47.29;100068.13;4993497;28;20137;-76
2023/09/08 09:07:23;;;;;;;5.25;3.40;;;;;;;27.00;47.22;100072.81;4993350;28;20506;-76
2023/09/08 09:09:51;;;;;;;3.80;3.40;;;;;;;27.10;47.19;100068.97;4993366;28;20054;-76
2023/09/08 09:12:17;;;;;;;4.15;3.75;;;;;;;27.17;47.09;100073.44;4992964;28;20097;-75
2023/09/08 09:14:47;;;;;;;4.60;3.33;;;;;;;27.23;46.62;100068.28;4993150;28;20511;-75
2023/09/08 09:17:15;;;;;;;6.80;3.15;;;;;;;27.32;46.75;100072.56;4975965;28;20046;-76
2023/09/08 09:19:41;;;;;;;3.47;3.03;;;;;;;27.39;46.05;100070.78;4993210;28;20085;-75
2023/09/08 09:22:08;;;;;;;4.65;3.70;;;;;;;27.47;46.15;100061.69;4992702;28;20453;-75
2023/09/08 09:24:43;;;;;;;7.45;3.42;;;;;;;27.56;45.54;100067.84;4992924;28;20058;-79
2023/09/08 09:27:10;;;;;;;3.50;3.20;;;;;;;27.64;45.53;100066.88;4975960;28;20054;-75
2023/09/08 09:29:53;;;;;;;7.30;3.28;;;;;;;27.69;45.29;100065.28;4993224;28;20054;-76
2023/09/08 09:32:24;;;;;;;6.90;3.55;;;;;;;27.80;44.88;100072.03;4975242;28;20054;-81
2023/09/08 09:34:53;;;;;;;4.45;3.10;;;;;;;27.90;45.90;100071.72;4992880;28;20142;-77
2023/09/08 09:37:20;;;;;;;4.13;3.55;;;;;;;27.99;44.82;100068.88;4992627;28;20050;-78
2023/09/08 09:39:52;;;;;;;5.63;3.53;;;;;;;28.06;44.32;100067.06;4992847;28;20077;-76
2023/09/08 09:42:19;;;;;;;3.72;3.30;;;;;;;28.16;45.09;100062.16;4992478;28;20069;-77
2023/09/08 09:44:51;;;;;;;7.68;3.63;;;;;;;28.22;44.40;100053.22;4992544;28;20057;-77
2023/09/08 09:47:19;;;;;;;5.45;3.65;;;;;;;28.33;44.61;100059.19;4992699;28;20054;-78
2023/09/08 09:49:47;;;;;;;3.28;2.97;;;;;;;28.43;44.25;100061.53;4992494;28;20046;-76
2023/09/08 09:52:21;;;;;;;4.90;3.40;;;;;;;28.49;44.79;100055.31;4991581;28;20483;-75
2023/09/08 09:54:50;;;;;;;4.65;3.42;;;;;;;28.60;44.19;100057.47;4992492;28;20058;-77
2023/09/08 09:57:19;;;;;;;6.97;3.78;;;;;;;28.68;43.47;100055.63;4992366;28;20121;-78
2023/09/08 09:59:48;;;;;;;4.70;3.38;;;;;;;28.78;44.40;100058.81;4974819;28;20546;-77
2023/09/08 10:02:14;;;;;;;3.33;3.03;;;;;;;28.88;44.42;100062.00;4991867;28;20054;-75
2023/09/08 10:04:42;;;;;;;6.07;3.38;;;;;;;28.98;44.81;100064.38;4992427;28;20054;-76
2023/09/08 10:07:09;;;;;;;3.75;3.17;;;;;;;29.09;44.41;100060.25;4992262;28;20093;-76
2023/09/08 10:09:36;;;;;;;5.18;3.40;;;;;;;29.21;43.67;100057.78;4992170;28;20050;-75
2023/09/08 10:12:08;;;;;;;6.88;3.40;;;;;;;29.31;42.94;100054.69;4991647;28;20050;-76
2023/09/08 10:14:36;;;;;;;3.85;3.55;;;;;;;29.46;44.56;100050.94;4974775;28;20050;-76
2023/09/08 10:17:08;;;;;;;3.90;3.20;;;;;;;29.58;44.03;100043.91;4991869;28;20121;-76
2023/09/08 10:19:41;;;;;;;5.13;3.20;;;;;;;29.72;43.68;100052.91;4992213;28;20113;-78
2023/09/08 10:22:12;;;;;;;3.95;3.30;;;;;;;29.86;43.03;100047.50;4974865;28;20050;-75
2023/09/08 10:24:40;;;;;;;4.05;3.30;;;;;;;29.97;43.42;100046.84;4974722;28;20443;-76
2023/09/08 10:27:11;;;;;;;5.20;3.15;;;;;;;30.08;42.93;100042.66;4991996;28;20046;-76
2023/09/08 10:29:38;;;;;;;5.47;2.90;;;;;;;30.21;43.18;100046.44;4974426;28;20050;-75
2023/09/08 10:32:07;;;;;;;3.95;3.15;;;;;;;30.32;41.71;100053.09;4991814;28;20050;-78
2023/09/08 10:34:36;;;;;;;4.05;3.15;;;;;;;30.44;42.54;100048.69;4991492;28;20074;-76
2023/09/08 10:37:05;;;;;;;4.35;2.83;;;;;;;30.55;42.11;100047.22;4991710;28;20153;-76
2023/09/08 10:39:39;;;;;;;4.97;3.05;;;;;;;30.65;42.10;100052.22;4991678;28;20065;-75
2023/09/08 10:42:19;;;;;;;3.45;3.15;;;;;;;30.75;40.86;100054.47;4991258;28;20050;-77
2023/09/08 10:44:49;;;;;;;3.35;3.05;;;;;;;30.88;39.76;100056.34;4991798;28;20054;-81
2023/09/08 10:47:22;;;;;;;3.70;3.10;;;;;;;30.98;41.28;100056.69;4991796;28;20054;-76
2023/09/08 10:49:53;;;;;;;5.05;3.22;;;;;;;31.10;40.07;100056.88;4991533;28;20046;-76
2023/09/08 10:52:24;;;;;;;5.65;3.17;;;;;;;31.22;41.14;100059.72;4991223;28;20050;-78
2023/09/08 10:54:53;;;;;;;4.25;3.05;;;;;;;31.33;40.74;100055.53;4991624;28;20400;-77
2023/09/08 10:57:26;;;;;;;4.20;3.22;;;;;;;31.45;41.10;100053.78;4991821;28;20050;-76
2023/09/08 10:59:53;;;;;;;3.55;3.13;;;;;;;31.64;41.56;100051.13;4991551;28;20057;-75
2023/09/08 11:02:34;;;;;;;3.53;3.05;;;;;;;31.84;40.93;100055.56;4991262;28;20077;-76
2023/09/08 11:05:04;;;;;;;3.90;2.97;;;;;;;32.16;41.49;100062.88;4994006;28;20081;-76
2023/09/08 11:07:32;;;;;;;3.50;2.97;;;;;;;32.55;41.00;100066.28;4978104;28;20054;-77
2023/09/08 11:10:02;;;;;;;4.22;2.55;;;;;;;33.08;40.58;100063.19;4995558;28;20069;-76
2023/09/08 11:12:29;;;;;;;3.15;2.85;;;;;;;33.70;40.90;100048.44;4995171;28;20051;-76
2023/09/08 11:14:56;;;;;;;4.55;3.45;;;;;;;34.42;39.66;100045.78;4977858;28;20062;-75
2023/09/08 11:17:30;;;;;;;3.10;2.75;;;;;;;35.20;38.71;100047.38;4995359;28;20049;-76
2023/09/08 11:19:58;;;;;;;3.15;2.85;;;;;;;35.98;37.89;100043.22;4995341;28;20086;-76
2023/09/08 11:22:26;;;;;;;3.25;2.50;;;;;;;36.71;36.11;100045.09;4995107;28;20081;-76
2023/09/08 11:25:00;;;;;;;3.17;2.78;;;;;;;37.40;33.68;100041.97;4995195;28;20060;-77
2023/09/08 11:27:28;;;;;;;4.63;2.90;;;;;;;38.08;34.40;100034.28;4995014;28;20511;-76